createdAt,value
2023-02-15T00:04:00.995Z,40.90
2023-02-15T00:09:04.078Z,37.60
2023-02-15T00:14:09.819Z,32.60
2023-02-15T00:19:15.699Z,36.90
2023-02-15T00:24:20.395Z,34.80
2023-02-15T00:29:23.235Z,34.80
2023-02-15T00:34:29.703Z,38.00
2023-02-15T00:39:33.034Z,39.80
2023-02-15T00:44:35.870Z,35.30
2023-02-15T00:49:38.698Z,37.80
2023-02-15T00:54:41.495Z,37.10
2023-02-15T00:59:44.305Z,32.10
2023-02-15T01:04:47.128Z,34.00
2023-02-15T01:09:49.973Z,27.20
2023-02-15T01:14:52.846Z,27.10
2023-02-15T01:19:55.734Z,30.20
2023-02-15T01:24:58.579Z,22.20
2023-02-15T01:30:01.429Z,28.90
2023-02-15T01:35:05.033Z,29.90
2023-02-15T01:40:14.079Z,29.20
2023-02-15T01:45:33.188Z,28.00
2023-02-15T01:50:45.384Z,29.30
2023-02-15T01:55:57.142Z,30.70
2023-02-15T02:01:01.726Z,28.60
2023-02-15T02:06:04.838Z,26.80
2023-02-15T02:11:15.569Z,32.30
2023-02-15T02:16:45.248Z,31.00
2023-02-15T02:22:09.627Z,26.90
2023-02-15T02:27:33.461Z,31.90
2023-02-15T02:33:22.583Z,29.60
2023-02-15T02:38:29.667Z,31.50
2023-02-15T02:43:55.490Z,30.00
2023-02-15T02:48:58.409Z,29.30
2023-02-15T02:54:06.737Z,29.20
2023-02-15T02:59:25.988Z,33.00
2023-02-15T03:04:34.031Z,31.50
2023-02-15T03:09:45.699Z,27.80
2023-02-15T03:14:54.314Z,29.10
2023-02-15T03:20:03.121Z,27.90
2023-02-15T03:25:18.495Z,30.90
2023-02-15T03:30:24.278Z,27.20
2023-02-15T03:35:40.281Z,29.00
2023-02-15T03:41:06.197Z,26.30
2023-02-15T03:46:34.539Z,30.60
2023-02-15T03:51:41.868Z,31.60
2023-02-15T03:57:04.906Z,31.50
2023-02-15T04:02:32.356Z,30.80
2023-02-15T04:07:35.300Z,29.70
2023-02-15T04:12:38.112Z,28.40
2023-02-15T04:17:40.936Z,27.70
2023-02-15T04:23:03.532Z,27.20
2023-02-15T04:28:08.611Z,37.00
2023-02-15T04:33:11.686Z,47.50
2023-02-15T04:38:14.652Z,36.70
2023-02-15T04:43:17.474Z,32.00
2023-02-15T04:48:20.327Z,36.20
2023-02-15T04:53:23.262Z,28.60
2023-02-15T04:58:26.113Z,40.90
2023-02-15T05:03:29.056Z,45.50
2023-02-15T05:08:32.729Z,32.40
2023-02-15T05:13:35.586Z,41.90
2023-02-15T05:18:38.700Z,31.50
2023-02-15T05:23:41.565Z,30.40
2023-02-15T05:28:44.518Z,34.40
2023-02-15T05:33:48.037Z,34.10
2023-02-15T05:38:51.033Z,29.40
2023-02-15T05:43:57.927Z,32.80
2023-02-15T05:49:00.759Z,30.70
2023-02-15T05:54:03.711Z,32.20
2023-02-15T05:59:06.569Z,30.90
2023-02-15T06:04:09.409Z,37.00
2023-02-15T06:09:13.810Z,36.80
2023-02-15T06:14:16.748Z,33.60
2023-02-15T06:19:20.590Z,32.30
2023-02-15T06:29:26.192Z,46.50
2023-02-15T06:34:29.071Z,30.90
2023-02-15T06:39:32.828Z,37.60
2023-02-15T06:44:35.665Z,35.80
2023-02-15T06:49:38.895Z,34.60
2023-02-15T06:54:41.748Z,34.30
2023-02-15T06:59:44.622Z,32.30
2023-02-15T07:04:47.519Z,37.40
2023-02-15T07:09:50.389Z,35.60
2023-02-15T07:14:53.373Z,35.80
2023-02-15T07:19:56.432Z,32.90
2023-02-15T07:24:59.732Z,35.90
2023-02-15T07:30:03.562Z,38.50
2023-02-15T07:40:09.872Z,34.00
2023-02-15T07:45:12.689Z,34.50
2023-02-15T07:50:15.995Z,29.50
2023-02-15T07:55:19.655Z,30.20
2023-02-15T08:00:25.994Z,35.70
2023-02-15T08:05:29.725Z,42.30
2023-02-15T08:10:51.200Z,33.40
2023-02-15T08:15:54.014Z,27.90
2023-02-15T08:20:56.878Z,28.10
2023-02-15T08:26:01.595Z,30.10
2023-02-15T08:31:13.411Z,44.10
2023-02-15T08:36:19.972Z,66.40
2023-02-15T08:41:30.352Z,39.40
2023-02-15T08:46:37.238Z,38.80
2023-02-15T08:51:40.836Z,43.20
2023-02-15T08:56:46.638Z,45.10
2023-02-15T09:01:52.534Z,39.90
2023-02-15T09:06:56.250Z,47.00
2023-02-15T09:11:59.709Z,72.30
2023-02-15T09:17:02.868Z,79.50
2023-02-15T09:22:06.082Z,54.50
2023-02-15T09:27:08.882Z,112.00
2023-02-15T09:32:16.118Z,47.60
2023-02-15T09:37:18.997Z,51.00
2023-02-15T09:43:08.782Z,65.50
2023-02-15T09:48:23.668Z,49.80
2023-02-15T09:54:01.967Z,62.20
2023-02-15T09:59:45.275Z,37.10
2023-02-15T10:05:01.351Z,44.30
2023-02-15T10:10:50.188Z,53.80
2023-02-15T10:16:21.302Z,36.60
2023-02-15T10:21:45.498Z,61.30
2023-02-15T10:26:49.903Z,133.20
2023-02-15T10:32:15.089Z,60.60
2023-02-15T10:38:22.249Z,40.90
2023-02-15T10:43:50.313Z,60.80
2023-02-15T10:49:24.131Z,112.40
2023-02-15T10:54:50.434Z,44.70
2023-02-15T11:00:16.086Z,53.30
2023-02-15T11:05:50.705Z,119.30
2023-02-15T11:11:03.967Z,105.10
2023-02-15T11:16:18.646Z,87.30
2023-02-15T11:21:40.209Z,38.70
2023-02-15T11:27:11.096Z,43.60
2023-02-15T11:32:22.817Z,40.10
2023-02-15T11:37:37.670Z,36.60
2023-02-15T11:42:42.190Z,49.30
2023-02-15T11:47:45.336Z,63.10
2023-02-15T11:52:53.020Z,81.90
2023-02-15T11:58:24.558Z,56.80
2023-02-15T12:03:47.293Z,65.50
2023-02-15T12:09:01.059Z,35.90
2023-02-15T12:19:44.660Z,132.60
2023-02-15T12:24:49.874Z,153.20
2023-02-15T12:30:08.789Z,43.80
2023-02-15T12:35:23.105Z,36.80
2023-02-15T12:40:31.920Z,52.40
2023-02-15T12:45:37.051Z,43.90
2023-02-15T12:50:42.348Z,49.10
2023-02-15T12:56:04.242Z,63.70
2023-02-15T13:01:10.148Z,28.80
2023-02-15T13:06:13.432Z,38.00
2023-02-15T13:11:35.017Z,36.50
2023-02-15T13:16:41.093Z,35.10
2023-02-15T13:21:49.456Z,29.30
2023-02-15T13:27:09.305Z,41.30
2023-02-15T13:32:39.293Z,52.80
2023-02-15T13:38:17.052Z,42.90
2023-02-15T13:43:37.038Z,32.50
2023-02-15T13:48:53.069Z,37.70
2023-02-15T13:54:26.227Z,33.30
2023-02-15T14:05:15.341Z,40.30
2023-02-15T14:10:48.157Z,53.50
2023-02-15T14:16:18.189Z,57.20
2023-02-15T14:21:33.737Z,122.30
2023-02-15T14:26:51.324Z,52.40
2023-02-15T14:32:05.227Z,73.40
2023-02-15T14:37:13.052Z,64.10
2023-02-15T14:42:31.046Z,64.60
2023-02-15T14:47:43.692Z,143.90
2023-02-15T14:53:34.000Z,122.60
2023-02-15T14:58:55.195Z,249.00
2023-02-15T15:04:04.180Z,241.90
2023-02-15T15:09:28.289Z,185.20
2023-02-15T15:14:34.114Z,299.40
2023-02-15T15:19:52.061Z,149.70
2023-02-15T15:25:12.894Z,124.40
2023-02-15T15:30:15.792Z,75.20
2023-02-15T15:35:55.763Z,41.30
2023-02-15T15:41:13.853Z,47.80
2023-02-15T15:47:16.605Z,60.20
2023-02-15T15:52:22.531Z,63.70
2023-02-15T15:57:39.476Z,74.70
2023-02-15T16:02:53.234Z,65.60
2023-02-15T16:07:56.134Z,68.00
2023-02-15T16:12:59.866Z,78.30
2023-02-15T16:18:03.543Z,77.60
2023-02-15T16:23:29.299Z,70.80
2023-02-15T16:28:32.245Z,71.10
2023-02-15T16:33:41.140Z,69.20
2023-02-15T16:38:43.952Z,96.20
2023-02-15T16:43:49.568Z,115.10
2023-02-15T16:48:54.932Z,95.30
2023-02-15T16:54:06.548Z,78.50
2023-02-15T16:59:37.019Z,95.00
2023-02-15T17:04:40.931Z,84.80
2023-02-15T17:15:04.968Z,81.90
2023-02-15T17:20:16.222Z,115.40
2023-02-15T17:25:33.628Z,103.10
2023-02-15T17:30:39.380Z,120.50
2023-02-15T17:35:42.776Z,116.90
2023-02-15T17:40:45.657Z,103.20
2023-02-15T17:45:51.362Z,101.60
2023-02-15T17:50:54.308Z,82.10
2023-02-15T17:55:57.265Z,77.70
2023-02-15T18:01:23.302Z,72.50
2023-02-15T18:06:45.108Z,87.90
2023-02-15T18:11:50.040Z,86.90
2023-02-15T18:16:53.496Z,91.60
2023-02-15T18:21:57.828Z,87.90
2023-02-15T18:27:00.750Z,97.40
2023-02-15T18:32:08.046Z,91.60
2023-02-15T18:37:22.247Z,90.80
2023-02-15T18:42:31.550Z,93.20
2023-02-15T18:47:34.378Z,107.80
2023-02-15T18:52:39.045Z,132.50
2023-02-15T18:57:44.888Z,121.70
2023-02-15T19:02:48.468Z,119.10
2023-02-15T19:07:52.102Z,115.80
2023-02-15T19:12:55.989Z,198.20
2023-02-15T19:23:02.820Z,111.90
2023-02-15T19:28:32.735Z,115.00
2023-02-15T19:33:36.128Z,121.30
2023-02-15T19:38:41.034Z,171.90
2023-02-15T19:43:46.610Z,247.10
2023-02-15T19:48:51.438Z,326.90
2023-02-15T19:53:55.617Z,313.70
2023-02-15T19:58:59.304Z,246.30
2023-02-15T20:04:02.131Z,240.00
2023-02-15T20:09:05.155Z,155.10
2023-02-15T20:14:14.637Z,145.70
2023-02-15T20:19:17.595Z,131.10
2023-02-15T20:24:22.290Z,128.30
2023-02-15T20:29:25.125Z,109.90
2023-02-15T20:34:28.275Z,149.70
2023-02-15T20:39:32.792Z,265.40
2023-02-15T20:44:37.678Z,244.70
2023-02-15T20:49:40.643Z,221.40
2023-02-15T20:54:43.490Z,251.50
2023-02-15T20:59:46.513Z,187.10
2023-02-15T21:04:50.601Z,304.30
2023-02-15T21:09:54.323Z,231.10
2023-02-15T21:14:57.519Z,322.40
2023-02-15T21:20:00.294Z,573.10
2023-02-15T21:25:03.162Z,404.40
2023-02-15T21:30:18.762Z,193.90
2023-02-15T21:35:22.181Z,216.60
2023-02-15T21:40:31.669Z,204.10
2023-02-15T21:45:52.919Z,201.90
2023-02-15T21:51:14.609Z,161.90
2023-02-15T21:56:23.169Z,179.80
2023-02-15T22:01:28.256Z,174.30
2023-02-15T22:06:31.129Z,169.80
2023-02-15T22:11:34.000Z,159.60
2023-02-15T22:16:36.869Z,198.90
2023-02-15T22:21:39.716Z,202.30
2023-02-15T22:26:42.532Z,257.70
2023-02-15T22:31:45.795Z,203.40
2023-02-15T22:36:48.692Z,180.30
2023-02-15T22:41:53.116Z,163.50
2023-02-15T22:46:56.391Z,282.50
2023-02-15T22:51:59.223Z,237.20
2023-02-15T22:57:02.087Z,202.50
2023-02-15T23:02:06.504Z,247.30
2023-02-15T23:07:18.456Z,202.90
2023-02-15T23:12:53.686Z,313.60
2023-02-15T23:17:56.523Z,221.60
2023-02-15T23:22:59.419Z,149.60
2023-02-15T23:28:02.322Z,183.30
2023-02-15T23:33:06.125Z,216.40
2023-02-15T23:38:29.073Z,183.80
2023-02-15T23:43:31.893Z,286.80
2023-02-15T23:48:38.710Z,327.40
2023-02-15T23:53:41.627Z,225.70
2023-02-15T23:58:47.328Z,196.00
